METAR AND TAF INFORMATION
METAR FOR EDDS
ADDS - METARS form results

(0457 UTC 26 August 2019)
Data provider http://aviationweather.gov/metar/data/
 
METAR text: EDDS 260450Z VRB02KT 9000 BCFG NSC 16/15 Q1019 NOSIG
Conditions at: EDDS (STUTTGART/ECHTER, DE) observed 0450 UTC 26 August 2019
Temperature: 16.0°C (61°F)
Dewpoint: 15.0°C (59°F) [RH = 94%]
Pressure (altimeter): 30.09 inches Hg (1019.0 mb)
Winds: variable direction winds at 2 MPH (2 knots; 1.0 m/s)
Visibility: 6 miles ( 9 km)
Ceiling: at least 12,000 feet AGL
Clouds: sky clear below 12,000 feet AGL
Weather: BCFG  (patches of fog)

METAR text: EDDS 260420Z 05002KT 9999 2500N BCFG NSC 16/16 Q1019 NOSIG
Conditions at: EDDS (STUTTGART/ECHTER, DE) observed 0420 UTC 26 August 2019
Temperature: 16.0°C (61°F)
Dewpoint: 16.0°C (61°F) [RH = 100%]
Pressure (altimeter): 30.09 inches Hg (1019.0 mb)
Winds: from the NE (50 degrees) at 2 MPH (2 knots; 1.0 m/s)
Visibility: 6 or more miles (10+ km)
Ceiling: at least 12,000 feet AGL
Clouds: sky clear below 12,000 feet AGL
Weather: BCFG  (patches of fog)

Forecast for: EDDS (STUTTGART/ECHTER, DE)
Text: TAF EDDS 252300Z 2600/2624 VRB03KT CAVOK
Forecast period: 0000 UTC 26 August 2019 to 0000 UTC 27 August 2019
Forecast type: FROM: standard forecast or significant change
Winds: variable direction winds at 3 MPH (3 knots; 1.5 m/s)
Visibility: 6 or more miles 10+ km)
Ceiling: unknown
Clouds: missing
Weather: NSW  (no significant weather)
Text: PROB30
Forecast period: 0200 to 0600 UTC 26 August 2019
Forecast type: TEMPORARY: The following changes expected for less than half the time period
Visibility: 0.75 miles (1.21 km)
Ceiling: unknown
Clouds: missing
Weather: BCFG  (patches of fog)
Text: TEMPO 2602/2606 1200 BCFG
Forecast period: 1300 to 1800 UTC 26 August 2019
Forecast type: TEMPORARY: The following changes expected for less than half the time period
Visibility: missing
Ceiling: 3500 feet AGL
Clouds: broken clouds at 3500 feet AGL
Weather: TSRA  (rain associated with thunderstorm(s))

 AIRPORT MAP

 RUNWAY INFORMATION
Runway 07 Runway length 10974 ft Runway width 148 ft
Runway elevation 1267 ft Runway displaced threshold 984 ft Runway heading 74
Runway 25 Runway length 10974 ft Runway width 148 ft
Runway elevation 1181 ft Runway displaced threshold 0 ft Runway heading 254

 AIRPORT FREQUENCIES
Type ATIS Name ATIS Frequency 126.125 MHZ
Type CLD Name CLNC DEL Frequency 121.9 MHZ
Type DIR Name DIR Frequency 119.85 MHZ
Type GND Name GND Frequency 118.6 MHZ
Type INFO Name LANGEN INF Frequency 128.95 MHZ
Type MISC Name DEICING Frequency 136.825 MHZ
Type PTD Name BASE OPS P Frequency 31.8 MHZ
Type RDR Name LANGEN RAD Frequency 119.2 MHZ
Type RMP Name APRON Frequency 121.7 MHZ
Type TWR Name TWR Frequency 118.8 MHZ

 AIRPORT NEAR NAVIGATION AIDS
Type VOR-DME Name Luburg Frequency 109200 KHZ
Type NDB Name Stuttgart Frequency 306 KHZ
Type DME Name Stuttgart Frequency 115450 KHZ
Type NDB Name Stuttgart Frequency 384 KHZ



Powered by Virtual Airlines Manager [v2.6.2]